Time;durP1;ratioP1;P1;durP2;ratioP2;P2;SDS_P1;SDS_P2;PMS_P1;PMS_P2;Temp;Humidity;BMP_temperature;BMP_pressure;BME280_temperature;BME280_humidity;BME280_pressure;Samples;Min_cycle;Max_cycle;Signal;HPM_P1;HPM_P2
2022/10/08 00:01:35;;;;;;;;;;;23.90;42.30;;;;;;487061;245;1445;-74
2022/10/08 00:03:37;;;;;;;;;;;23.80;42.40;;;;;;487074;245;1222;-74
2022/10/08 00:05:38;;;;;;;;;;;23.80;42.40;;;;;;487051;244;1131;-74
2022/10/08 00:07:41;;;;;;;;;;;23.80;42.40;;;;;;487058;245;1315;-74
2022/10/08 00:09:41;;;;;;;;;;;23.80;42.40;;;;;;486991;245;1649;-74
2022/10/08 00:11:42;;;;;;;;;;;23.80;42.50;;;;;;487080;245;1158;-74
2022/10/08 00:13:43;;;;;;;;;;;23.80;42.50;;;;;;487086;244;1165;-74
2022/10/08 00:15:45;;;;;;;;;;;23.80;42.50;;;;;;487044;245;1169;-75
2022/10/08 00:17:46;;;;;;;;;;;23.70;42.40;;;;;;487126;245;1127;-75
2022/10/08 00:19:47;;;;;;;;;;;23.80;42.40;;;;;;487121;244;2186;-74
2022/10/08 00:21:52;;;;;;;;;;;23.80;42.40;;;;;;487118;245;1142;-74
2022/10/08 00:23:50;;;;;;;;;;;23.70;42.40;;;;;;486959;245;1475;-74
2022/10/08 00:25:52;;;;;;;;;;;23.70;42.50;;;;;;487071;245;1123;-75
2022/10/08 00:27:54;;;;;;;;;;;23.70;42.50;;;;;;487127;245;1157;-75
2022/10/08 00:29:55;;;;;;;;;;;23.70;42.50;;;;;;487054;245;1294;-75
2022/10/08 00:31:57;;;;;;;;;;;23.70;42.50;;;;;;487128;244;1401;-75
2022/10/08 00:33:58;;;;;;;;;;;23.70;42.50;;;;;;487094;245;1101;-74
2022/10/08 00:35:59;;;;;;;;;;;23.70;42.50;;;;;;487113;244;1184;-74
2022/10/08 00:38:01;;;;;;;;;;;23.70;42.40;;;;;;487053;245;1151;-74
2022/10/08 00:40:02;;;;;;;;;;;23.70;42.50;;;;;;487039;245;2185;-74
2022/10/08 00:42:03;;;;;;;;;;;23.70;42.40;;;;;;487107;245;1106;-74
2022/10/08 00:44:04;;;;;;;;;;;23.70;42.30;;;;;;487061;245;1034;-74
2022/10/08 00:46:06;;;;;;;;;;;23.70;42.30;;;;;;487059;245;1226;-74
2022/10/08 00:48:07;;;;;;;;;;;23.70;42.40;;;;;;487122;245;1164;-74
2022/10/08 00:50:08;;;;;;;;;;;23.70;42.40;;;;;;487115;245;1126;-74
2022/10/08 00:52:10;;;;;;;;;;;23.80;42.30;;;;;;487097;245;1225;-74
2022/10/08 00:54:11;;;;;;;;;;;23.70;42.30;;;;;;487092;244;1317;-74
2022/10/08 00:56:13;;;;;;;;;;;23.70;42.40;;;;;;487113;245;1063;-75
2022/10/08 00:58:14;;;;;;;;;;;23.70;42.40;;;;;;487110;244;1150;-74
2022/10/08 01:00:15;;;;;;;;;;;23.70;42.30;;;;;;487037;245;2174;-75
2022/10/08 01:02:18;;;;;;;;;;;23.70;42.40;;;;;;487115;245;1049;-74
2022/10/08 01:04:18;;;;;;;;;;;23.70;42.40;;;;;;487061;245;1471;-74
2022/10/08 01:06:19;;;;;;;;;;;23.70;42.30;;;;;;487141;245;1088;-74
2022/10/08 01:08:21;;;;;;;;;;;23.70;42.30;;;;;;487140;244;1176;-74
2022/10/08 01:10:22;;;;;;;;;;;23.70;42.30;;;;;;487164;245;1145;-74
2022/10/08 01:12:23;;;;;;;;;;;23.60;42.30;;;;;;487121;245;1153;-74
2022/10/08 01:14:25;;;;;;;;;;;23.60;42.30;;;;;;487157;245;1114;-75
2022/10/08 01:16:26;;;;;;;;;;;23.70;42.20;;;;;;487132;245;1188;-75
2022/10/08 01:18:28;;;;;;;;;;;23.70;42.20;;;;;;487202;245;1147;-75
2022/10/08 01:20:30;;;;;;;;;;;23.60;42.10;;;;;;487139;245;2171;-75
2022/10/08 01:22:30;;;;;;;;;;;23.60;42.20;;;;;;487063;245;1269;-75
2022/10/08 01:26:52;;;;;;;;;;;23.70;42.20;;;;;;487044;245;1167;-74
2022/10/08 01:28:55;;;;;;;;;;;23.80;42.00;;;;;;487093;245;1054;-74
2022/10/08 01:30:55;;;;;;;;;;;23.90;41.80;;;;;;487008;245;1535;-74
2022/10/08 01:32:56;;;;;;;;;;;23.90;41.60;;;;;;487116;245;1199;-75
2022/10/08 01:34:58;;;;;;;;;;;24.00;41.60;;;;;;487157;244;1132;-75
2022/10/08 01:36:59;;;;;;;;;;;24.00;41.40;;;;;;487212;245;1035;-75
2022/10/08 01:39:00;;;;;;;;;;;24.00;41.40;;;;;;487146;245;1232;-75
2022/10/08 01:41:02;;;;;;;;;;;24.00;41.50;;;;;;487154;244;2194;-74
2022/10/08 01:43:03;;;;;;;;;;;24.00;41.50;;;;;;487171;245;1080;-74
2022/10/08 01:45:04;;;;;;;;;;;24.00;41.50;;;;;;487179;245;1095;-74
2022/10/08 01:47:06;;;;;;;;;;;23.90;41.50;;;;;;487104;245;1176;-74
2022/10/08 01:49:07;;;;;;;;;;;24.00;41.50;;;;;;487125;245;1037;-74
2022/10/08 01:51:09;;;;;;;;;;;24.00;41.60;;;;;;487114;245;1027;-74
2022/10/08 01:53:10;;;;;;;;;;;24.00;41.50;;;;;;487200;245;1037;-75
2022/10/08 01:55:11;;;;;;;;;;;23.90;41.50;;;;;;487149;245;1074;-75
2022/10/08 01:57:13;;;;;;;;;;;24.00;41.50;;;;;;487216;244;1113;-75
2022/10/08 01:59:14;;;;;;;;;;;24.00;41.50;;;;;;487103;245;2194;-75
2022/10/08 02:01:15;;;;;;;;;;;23.90;41.50;;;;;;487165;244;1121;-75
2022/10/08 02:03:17;;;;;;;;;;;23.90;41.50;;;;;;487056;245;1058;-74
2022/10/08 02:05:18;;;;;;;;;;;23.90;41.50;;;;;;487124;244;1117;-75
2022/10/08 02:07:19;;;;;;;;;;;23.90;41.40;;;;;;487082;245;1270;-74
2022/10/08 02:09:21;;;;;;;;;;;23.90;41.50;;;;;;487115;245;1116;-74
2022/10/08 02:11:22;;;;;;;;;;;23.90;41.50;;;;;;487120;245;1178;-74
2022/10/08 02:13:23;;;;;;;;;;;23.90;41.50;;;;;;487156;245;1111;-74
2022/10/08 02:15:25;;;;;;;;;;;23.80;41.40;;;;;;487132;245;1185;-75
2022/10/08 02:17:26;;;;;;;;;;;23.90;41.60;;;;;;487090;245;1169;-74
2022/10/08 02:19:27;;;;;;;;;;;23.80;41.50;;;;;;487127;245;2195;-74
2022/10/08 02:21:29;;;;;;;;;;;23.80;41.70;;;;;;487135;244;1064;-74
2022/10/08 02:23:30;;;;;;;;;;;23.80;41.70;;;;;;487120;245;1040;-74
2022/10/08 02:25:32;;;;;;;;;;;23.80;41.60;;;;;;487080;245;1078;-74
2022/10/08 02:27:33;;;;;;;;;;;23.90;41.50;;;;;;487088;244;1139;-75
2022/10/08 02:29:34;;;;;;;;;;;23.80;41.50;;;;;;487117;245;1205;-75
2022/10/08 02:31:36;;;;;;;;;;;23.90;41.60;;;;;;487112;245;1096;-74
2022/10/08 02:33:37;;;;;;;;;;;23.90;41.50;;;;;;487144;245;1047;-74
2022/10/08 02:35:38;;;;;;;;;;;23.90;41.50;;;;;;487104;244;1127;-74
2022/10/08 02:37:40;;;;;;;;;;;23.90;41.50;;;;;;487105;245;1137;-74
2022/10/08 02:39:42;;;;;;;;;;;23.90;41.40;;;;;;487112;245;2167;-74
2022/10/08 02:41:43;;;;;;;;;;;23.90;41.50;;;;;;487066;245;1521;-74
2022/10/08 02:43:45;;;;;;;;;;;23.90;41.40;;;;;;487112;245;1184;-74
2022/10/08 02:45:46;;;;;;;;;;;23.90;41.30;;;;;;487101;245;1363;-74
2022/10/08 02:47:47;;;;;;;;;;;23.90;41.40;;;;;;487068;245;1153;-74
2022/10/08 02:49:49;;;;;;;;;;;23.90;41.30;;;;;;487112;245;1170;-74
2022/10/08 02:51:50;;;;;;;;;;;23.90;41.40;;;;;;487072;245;1111;-75
2022/10/08 02:53:52;;;;;;;;;;;23.90;41.30;;;;;;487134;244;1097;-75
2022/10/08 02:55:54;;;;;;;;;;;23.80;41.50;;;;;;487049;245;1162;-74
2022/10/08 02:57:55;;;;;;;;;;;23.80;41.40;;;;;;487077;245;1203;-74
2022/10/08 02:59:57;;;;;;;;;;;23.90;41.30;;;;;;487038;245;2174;-74
2022/10/08 03:01:59;;;;;;;;;;;23.90;41.40;;;;;;487186;244;1123;-75
2022/10/08 03:04:00;;;;;;;;;;;23.80;41.40;;;;;;487103;245;1177;-74
2022/10/08 03:06:01;;;;;;;;;;;23.80;41.40;;;;;;487079;244;1170;-74
2022/10/08 03:08:04;;;;;;;;;;;23.70;41.50;;;;;;486958;245;1096;-74
2022/10/08 03:10:05;;;;;;;;;;;23.70;41.50;;;;;;486972;245;1531;-74
2022/10/08 03:12:06;;;;;;;;;;;23.70;41.50;;;;;;486853;245;1151;-74
2022/10/08 03:14:08;;;;;;;;;;;23.70;41.50;;;;;;486821;245;1276;-74
2022/10/08 03:16:09;;;;;;;;;;;23.70;41.50;;;;;;486798;245;1231;-75
2022/10/08 03:18:11;;;;;;;;;;;23.70;41.50;;;;;;486882;244;1297;-74
2022/10/08 03:20:12;;;;;;;;;;;23.60;41.40;;;;;;486738;245;2187;-75
2022/10/08 03:22:14;;;;;;;;;;;23.60;41.60;;;;;;486774;244;1159;-75
2022/10/08 03:24:15;;;;;;;;;;;23.60;41.50;;;;;;486802;245;1126;-74
2022/10/08 03:26:17;;;;;;;;;;;23.60;41.60;;;;;;486762;245;1273;-74
2022/10/08 03:28:18;;;;;;;;;;;23.60;41.50;;;;;;486888;245;1300;-75
2022/10/08 03:30:19;;;;;;;;;;;23.60;41.50;;;;;;486977;245;1155;-75
2022/10/08 03:32:21;;;;;;;;;;;23.70;41.40;;;;;;487104;245;1143;-75
2022/10/08 03:34:22;;;;;;;;;;;23.70;41.40;;;;;;487031;244;1297;-75
2022/10/08 03:36:23;;;;;;;;;;;23.70;41.40;;;;;;487069;245;1336;-74
2022/10/08 03:38:25;;;;;;;;;;;23.70;41.30;;;;;;487040;244;1112;-74
2022/10/08 03:40:26;;;;;;;;;;;23.70;41.30;;;;;;486979;245;2175;-75
2022/10/08 03:42:28;;;;;;;;;;;23.80;41.30;;;;;;486962;244;1179;-74
2022/10/08 03:44:29;;;;;;;;;;;23.80;41.20;;;;;;486964;245;1126;-74
2022/10/08 03:46:30;;;;;;;;;;;23.80;41.30;;;;;;487009;245;1097;-74
2022/10/08 03:48:32;;;;;;;;;;;23.80;41.20;;;;;;487065;244;1219;-74
2022/10/08 03:50:33;;;;;;;;;;;23.80;41.30;;;;;;486964;245;1142;-75
2022/10/08 03:52:34;;;;;;;;;;;23.80;41.20;;;;;;487048;244;1085;-74
2022/10/08 03:54:36;;;;;;;;;;;23.70;41.20;;;;;;486994;245;1194;-74
2022/10/08 03:56:37;;;;;;;;;;;23.80;41.20;;;;;;487037;245;1090;-74
2022/10/08 03:58:38;;;;;;;;;;;23.80;41.20;;;;;;487064;245;1106;-75
2022/10/08 04:00:40;;;;;;;;;;;23.80;41.20;;;;;;486952;245;2155;-74
2022/10/08 04:02:41;;;;;;;;;;;23.80;41.30;;;;;;486997;244;1102;-74
2022/10/08 04:04:42;;;;;;;;;;;23.80;41.20;;;;;;487030;245;1143;-74
2022/10/08 04:06:44;;;;;;;;;;;23.70;41.10;;;;;;487024;245;1133;-74
2022/10/08 04:08:45;;;;;;;;;;;23.80;41.30;;;;;;487044;245;1236;-74
2022/10/08 04:10:47;;;;;;;;;;;23.70;41.20;;;;;;487059;245;1164;-74
2022/10/08 04:12:48;;;;;;;;;;;23.70;41.30;;;;;;487116;245;1153;-74
2022/10/08 04:14:49;;;;;;;;;;;23.70;41.30;;;;;;486997;245;1148;-74
2022/10/08 04:16:51;;;;;;;;;;;23.80;41.30;;;;;;487023;244;1102;-75
2022/10/08 04:18:52;;;;;;;;;;;23.70;41.40;;;;;;487086;245;1155;-75
2022/10/08 04:20:53;;;;;;;;;;;23.80;41.40;;;;;;487039;245;2143;-74
2022/10/08 04:22:55;;;;;;;;;;;23.80;41.40;;;;;;486993;245;1101;-74
2022/10/08 04:24:56;;;;;;;;;;;23.80;41.40;;;;;;486980;245;1117;-74
2022/10/08 04:26:58;;;;;;;;;;;23.80;41.40;;;;;;487016;244;1095;-75
2022/10/08 04:28:59;;;;;;;;;;;23.70;41.40;;;;;;486997;245;1108;-75
2022/10/08 04:31:00;;;;;;;;;;;23.80;41.60;;;;;;487040;245;1144;-74
2022/10/08 04:33:02;;;;;;;;;;;23.80;41.60;;;;;;486984;245;1205;-74
2022/10/08 04:35:03;;;;;;;;;;;23.70;41.60;;;;;;486981;245;1328;-74
2022/10/08 04:37:04;;;;;;;;;;;23.80;41.70;;;;;;487072;244;1107;-74
2022/10/08 04:39:06;;;;;;;;;;;23.70;41.70;;;;;;487059;245;1167;-74
2022/10/08 04:41:07;;;;;;;;;;;23.70;41.90;;;;;;487070;244;2194;-74
2022/10/08 04:43:08;;;;;;;;;;;23.70;41.90;;;;;;487091;245;1138;-74
2022/10/08 04:45:10;;;;;;;;;;;23.60;42.00;;;;;;487024;245;1103;-75
2022/10/08 04:47:11;;;;;;;;;;;23.70;42.00;;;;;;487126;244;1117;-75
2022/10/08 04:49:12;;;;;;;;;;;23.70;42.00;;;;;;487037;245;1160;-74
2022/10/08 04:51:14;;;;;;;;;;;23.70;42.10;;;;;;487072;245;1176;-74
2022/10/08 04:53:15;;;;;;;;;;;23.70;42.10;;;;;;487072;245;1128;-75
2022/10/08 04:55:16;;;;;;;;;;;23.70;42.20;;;;;;487017;245;1083;-75
2022/10/08 04:57:18;;;;;;;;;;;23.70;42.10;;;;;;486983;245;1226;-75
2022/10/08 04:59:19;;;;;;;;;;;23.70;42.20;;;;;;486980;245;1123;-74
2022/10/08 05:01:20;;;;;;;;;;;23.70;42.20;;;;;;487043;245;2167;-74
2022/10/08 05:03:22;;;;;;;;;;;23.70;42.30;;;;;;486966;244;1223;-74
2022/10/08 05:05:23;;;;;;;;;;;23.70;42.30;;;;;;487077;245;1149;-75
2022/10/08 05:07:25;;;;;;;;;;;23.70;42.30;;;;;;487040;245;1371;-74
2022/10/08 05:09:26;;;;;;;;;;;23.70;42.30;;;;;;487002;245;1249;-74
2022/10/08 05:11:27;;;;;;;;;;;23.70;42.30;;;;;;487025;245;1157;-75
2022/10/08 05:13:29;;;;;;;;;;;23.80;42.30;;;;;;487010;245;1141;-75
2022/10/08 05:15:30;;;;;;;;;;;23.80;42.30;;;;;;487032;244;1215;-75
2022/10/08 05:17:31;;;;;;;;;;;23.80;42.40;;;;;;487096;245;1229;-75
2022/10/08 05:19:34;;;;;;;;;;;23.80;42.50;;;;;;486993;245;1198;-75
2022/10/08 05:21:34;;;;;;;;;;;23.70;42.50;;;;;;486962;245;2191;-75
2022/10/08 05:23:35;;;;;;;;;;;23.80;42.50;;;;;;487037;244;1078;-74
2022/10/08 05:25:37;;;;;;;;;;;23.80;42.50;;;;;;487050;245;1119;-74
2022/10/08 05:27:38;;;;;;;;;;;23.80;42.50;;;;;;487008;245;1148;-74
2022/10/08 05:29:39;;;;;;;;;;;23.90;42.60;;;;;;487031;245;1099;-74
2022/10/08 05:31:41;;;;;;;;;;;23.80;42.60;;;;;;487060;244;1110;-74
2022/10/08 05:33:42;;;;;;;;;;;23.70;42.70;;;;;;487012;245;1090;-74
2022/10/08 05:35:43;;;;;;;;;;;23.80;42.80;;;;;;487004;245;1156;-74
2022/10/08 05:37:45;;;;;;;;;;;23.80;42.80;;;;;;487000;245;1132;-74
2022/10/08 05:39:46;;;;;;;;;;;23.80;42.80;;;;;;487051;245;1104;-75
2022/10/08 05:41:47;;;;;;;;;;;23.80;42.80;;;;;;487004;245;2194;-75
2022/10/08 05:43:49;;;;;;;;;;;23.80;42.80;;;;;;487095;244;1160;-75
2022/10/08 05:45:50;;;;;;;;;;;23.80;42.80;;;;;;487010;245;1113;-75
2022/10/08 05:47:52;;;;;;;;;;;23.80;42.90;;;;;;487045;244;1245;-75
2022/10/08 05:49:53;;;;;;;;;;;23.80;42.90;;;;;;486991;245;1156;-75
2022/10/08 05:51:54;;;;;;;;;;;23.80;42.90;;;;;;487141;244;1108;-75
2022/10/08 05:53:56;;;;;;;;;;;23.70;42.90;;;;;;487066;245;1207;-75
2022/10/08 05:55:57;;;;;;;;;;;23.80;42.90;;;;;;487078;245;1127;-75
2022/10/08 05:57:58;;;;;;;;;;;23.80;42.90;;;;;;487046;245;1103;-75
2022/10/08 06:00:00;;;;;;;;;;;23.70;42.90;;;;;;487069;245;1184;-74
2022/10/08 06:02:01;;;;;;;;;;;23.80;42.90;;;;;;487032;245;2202;-74
2022/10/08 06:04:04;;;;;;;;;;;23.80;43.00;;;;;;487028;245;1235;-74
2022/10/08 06:06:04;;;;;;;;;;;23.70;43.00;;;;;;486890;245;1473;-74
2022/10/08 06:08:05;;;;;;;;;;;23.70;43.00;;;;;;487090;245;1079;-74
2022/10/08 06:10:07;;;;;;;;;;;23.70;43.10;;;;;;487053;245;1075;-74
2022/10/08 06:12:08;;;;;;;;;;;23.70;43.10;;;;;;487049;245;1146;-74
2022/10/08 06:14:09;;;;;;;;;;;23.70;43.10;;;;;;487051;245;1152;-74
2022/10/08 06:16:11;;;;;;;;;;;23.70;43.10;;;;;;487044;245;1158;-74
2022/10/08 06:18:12;;;;;;;;;;;23.70;43.20;;;;;;487080;245;1044;-74
2022/10/08 06:20:13;;;;;;;;;;;23.70;43.20;;;;;;487013;244;1171;-74
2022/10/08 06:22:15;;;;;;;;;;;23.70;43.20;;;;;;487044;245;2182;-74
2022/10/08 06:24:16;;;;;;;;;;;23.70;43.20;;;;;;487064;245;1075;-74
2022/10/08 06:26:17;;;;;;;;;;;23.70;43.30;;;;;;487059;245;1034;-74
2022/10/08 06:28:19;;;;;;;;;;;23.70;43.30;;;;;;487025;245;1192;-74
2022/10/08 06:30:20;;;;;;;;;;;23.70;43.40;;;;;;487091;245;1112;-74
2022/10/08 06:32:22;;;;;;;;;;;23.70;43.40;;;;;;487032;245;1184;-74
2022/10/08 06:34:23;;;;;;;;;;;23.70;43.40;;;;;;487153;244;1142;-74
2022/10/08 06:36:25;;;;;;;;;;;23.70;43.40;;;;;;487017;245;1253;-74
2022/10/08 06:38:26;;;;;;;;;;;23.70;43.50;;;;;;487038;245;1151;-75
2022/10/08 06:40:27;;;;;;;;;;;23.70;43.50;;;;;;486993;245;1353;-74
2022/10/08 06:42:29;;;;;;;;;;;23.70;43.70;;;;;;487020;245;2178;-74
2022/10/08 06:44:30;;;;;;;;;;;23.70;43.70;;;;;;487024;245;1215;-74
2022/10/08 06:46:31;;;;;;;;;;;23.70;43.80;;;;;;487052;245;1155;-74
2022/10/08 06:48:33;;;;;;;;;;;23.70;43.80;;;;;;487059;245;1076;-74
2022/10/08 06:50:34;;;;;;;;;;;23.60;44.00;;;;;;486989;245;1162;-74
2022/10/08 06:52:35;;;;;;;;;;;23.60;44.10;;;;;;487026;245;1116;-75
2022/10/08 06:54:37;;;;;;;;;;;23.70;44.10;;;;;;487104;245;1151;-75
2022/10/08 06:56:38;;;;;;;;;;;23.70;44.10;;;;;;487132;244;1103;-74
2022/10/08 06:58:39;;;;;;;;;;;23.70;44.20;;;;;;487098;245;1212;-74
2022/10/08 07:00:41;;;;;;;;;;;23.70;44.20;;;;;;487047;245;1158;-74
2022/10/08 07:02:43;;;;;;;;;;;23.80;44.30;;;;;;487045;245;2172;-74
2022/10/08 07:04:43;;;;;;;;;;;23.80;44.40;;;;;;486959;245;1264;-74
2022/10/08 07:06:45;;;;;;;;;;;23.80;44.50;;;;;;487099;244;1319;-74
2022/10/08 07:08:46;;;;;;;;;;;23.80;44.50;;;;;;487038;245;1147;-74
2022/10/08 07:10:49;;;;;;;;;;;23.80;44.70;;;;;;487099;244;1063;-74
2022/10/08 07:12:49;;;;;;;;;;;23.80;44.70;;;;;;487020;245;1443;-74
2022/10/08 07:14:50;;;;;;;;;;;23.80;44.80;;;;;;487004;244;1041;-74
2022/10/08 07:16:52;;;;;;;;;;;23.80;44.90;;;;;;487027;245;1126;-74
2022/10/08 07:18:53;;;;;;;;;;;23.80;45.00;;;;;;487093;244;1180;-74
2022/10/08 07:20:55;;;;;;;;;;;23.80;45.10;;;;;;487108;245;2205;-74
2022/10/08 07:22:56;;;;;;;;;;;23.80;45.20;;;;;;487084;245;1140;-74
2022/10/08 07:24:58;;;;;;;;;;;23.90;45.40;;;;;;487039;244;1183;-74
2022/10/08 07:26:59;;;;;;;;;;;23.90;45.40;;;;;;487009;245;1135;-74
2022/10/08 07:29:00;;;;;;;;;;;23.90;45.50;;;;;;487011;244;1118;-75
2022/10/08 07:31:02;;;;;;;;;;;23.90;45.60;;;;;;486730;245;1486;-74
2022/10/08 07:33:05;;;;;;;;;;;23.90;45.60;;;;;;487086;244;1125;-74
2022/10/08 07:35:04;;;;;;;;;;;23.90;45.70;;;;;;486968;245;1489;-74
2022/10/08 07:37:06;;;;;;;;;;;23.90;45.80;;;;;;487051;245;1150;-74
2022/10/08 07:39:07;;;;;;;;;;;23.90;45.80;;;;;;487023;245;1134;-74
2022/10/08 07:41:08;;;;;;;;;;;23.90;46.00;;;;;;487044;244;2190;-75
2022/10/08 07:43:10;;;;;;;;;;;23.80;46.10;;;;;;487052;245;1252;-75
2022/10/08 07:45:11;;;;;;;;;;;23.90;46.30;;;;;;487065;245;1164;-75
2022/10/08 07:47:12;;;;;;;;;;;23.90;46.20;;;;;;487029;245;1161;-75
2022/10/08 07:49:14;;;;;;;;;;;23.90;46.30;;;;;;487008;245;1100;-75
2022/10/08 07:51:15;;;;;;;;;;;23.90;46.40;;;;;;487025;245;1139;-75
2022/10/08 07:53:17;;;;;;;;;;;23.90;46.50;;;;;;487045;245;1164;-75
2022/10/08 07:55:18;;;;;;;;;;;23.90;46.60;;;;;;487024;245;1129;-75
2022/10/08 07:57:19;;;;;;;;;;;23.90;46.60;;;;;;487000;245;1149;-75
2022/10/08 07:59:21;;;;;;;;;;;23.90;46.80;;;;;;486988;245;1122;-75
2022/10/08 08:01:25;;;;;;;;;;;23.90;46.80;;;;;;487066;245;2197;-75
2022/10/08 08:03:23;;;;;;;;;;;23.90;46.90;;;;;;486824;245;1415;-74
2022/10/08 08:05:25;;;;;;;;;;;23.90;47.00;;;;;;487092;244;1121;-74
2022/10/08 08:07:26;;;;;;;;;;;23.80;47.10;;;;;;487033;245;1120;-74
2022/10/08 08:09:28;;;;;;;;;;;23.90;47.10;;;;;;487052;245;1131;-74
2022/10/08 08:11:29;;;;;;;;;;;23.80;47.20;;;;;;487069;245;1456;-74
2022/10/08 08:13:30;;;;;;;;;;;23.80;47.30;;;;;;487079;245;1142;-75
2022/10/08 08:15:31;;;;;;;;;;;23.80;47.40;;;;;;486993;245;1157;-75
2022/10/08 08:17:33;;;;;;;;;;;23.90;47.40;;;;;;487100;245;1163;-75
2022/10/08 08:19:35;;;;;;;;;;;23.80;47.30;;;;;;487012;245;1232;-75
2022/10/08 08:21:35;;;;;;;;;;;23.80;47.40;;;;;;486914;245;2183;-75
2022/10/08 08:23:37;;;;;;;;;;;23.90;47.50;;;;;;487073;245;1318;-75
2022/10/08 08:25:38;;;;;;;;;;;23.90;47.50;;;;;;487027;244;1322;-75
2022/10/08 08:27:40;;;;;;;;;;;23.90;47.60;;;;;;487010;245;1103;-75
2022/10/08 08:29:41;;;;;;;;;;;23.90;47.70;;;;;;487031;244;1523;-75
2022/10/08 08:31:42;;;;;;;;;;;23.80;47.70;;;;;;487014;245;1440;-74
2022/10/08 08:33:44;;;;;;;;;;;23.90;47.80;;;;;;487022;244;1333;-75
2022/10/08 08:35:45;;;;;;;;;;;23.90;47.90;;;;;;487016;245;1202;-74
2022/10/08 08:37:46;;;;;;;;;;;23.90;47.90;;;;;;487051;245;1121;-74
2022/10/08 08:39:48;;;;;;;;;;;23.90;47.90;;;;;;487013;245;1210;-74
2022/10/08 08:41:49;;;;;;;;;;;23.90;48.00;;;;;;487033;245;2191;-74
2022/10/08 08:43:50;;;;;;;;;;;23.80;47.90;;;;;;487017;245;1210;-74
2022/10/08 08:45:52;;;;;;;;;;;23.90;48.00;;;;;;486952;245;1157;-75
2022/10/08 08:47:53;;;;;;;;;;;23.90;47.90;;;;;;486984;245;1183;-75
2022/10/08 08:49:54;;;;;;;;;;;23.90;48.00;;;;;;487008;245;1147;-74
2022/10/08 08:51:56;;;;;;;;;;;23.90;48.00;;;;;;487050;245;1188;-74
2022/10/08 08:53:57;;;;;;;;;;;23.90;48.10;;;;;;487035;245;1150;-74
2022/10/08 08:55:58;;;;;;;;;;;23.80;48.20;;;;;;487060;244;1348;-74
2022/10/08 08:58:00;;;;;;;;;;;23.90;48.30;;;;;;487049;245;1141;-75
2022/10/08 09:00:02;;;;;;;;;;;23.80;48.30;;;;;;486922;245;1133;-74
2022/10/08 09:02:03;;;;;;;;;;;23.80;48.40;;;;;;487024;245;2174;-74
2022/10/08 09:04:04;;;;;;;;;;;23.90;48.40;;;;;;487130;245;1059;-74
2022/10/08 09:06:05;;;;;;;;;;;23.90;48.50;;;;;;487069;245;1193;-74
2022/10/08 09:08:07;;;;;;;;;;;23.90;48.50;;;;;;487060;245;1242;-74
2022/10/08 09:10:08;;;;;;;;;;;23.90;48.60;;;;;;487054;245;1104;-74
2022/10/08 09:12:09;;;;;;;;;;;23.90;48.50;;;;;;487069;244;1178;-74
2022/10/08 09:14:13;;;;;;;;;;;23.90;48.50;;;;;;487021;245;1161;-74
2022/10/08 09:16:12;;;;;;;;;;;23.90;48.50;;;;;;486863;245;1416;-75
2022/10/08 09:18:13;;;;;;;;;;;23.90;48.50;;;;;;486975;245;1091;-75
2022/10/08 09:20:15;;;;;;;;;;;23.90;48.60;;;;;;487038;245;1204;-75
2022/10/08 09:22:16;;;;;;;;;;;23.90;48.50;;;;;;486994;245;2182;-75
2022/10/08 09:24:17;;;;;;;;;;;23.90;48.60;;;;;;487013;245;1175;-75
2022/10/08 09:26:19;;;;;;;;;;;23.90;48.70;;;;;;487051;245;1167;-75
2022/10/08 09:28:20;;;;;;;;;;;23.90;48.70;;;;;;487074;244;1253;-75
2022/10/08 09:30:21;;;;;;;;;;;23.90;48.80;;;;;;487011;245;1188;-74
2022/10/08 09:32:23;;;;;;;;;;;23.90;48.80;;;;;;487051;245;1088;-74
2022/10/08 09:34:24;;;;;;;;;;;23.90;49.00;;;;;;487105;245;1176;-75
2022/10/08 09:36:25;;;;;;;;;;;23.90;49.00;;;;;;487042;245;1150;-75
2022/10/08 09:38:27;;;;;;;;;;;23.90;49.00;;;;;;487042;245;1172;-75
2022/10/08 09:40:28;;;;;;;;;;;23.90;49.00;;;;;;487078;245;1153;-75
2022/10/08 09:42:30;;;;;;;;;;;23.90;49.00;;;;;;487042;245;2178;-74
2022/10/08 09:44:31;;;;;;;;;;;23.90;48.90;;;;;;487173;244;1231;-74
2022/10/08 09:46:32;;;;;;;;;;;23.90;48.90;;;;;;487057;245;1162;-74
2022/10/08 09:48:34;;;;;;;;;;;24.00;48.90;;;;;;487139;244;1142;-74
2022/10/08 09:50:35;;;;;;;;;;;24.00;48.80;;;;;;487073;245;1104;-74
2022/10/08 09:52:36;;;;;;;;;;;23.90;48.90;;;;;;487072;245;1160;-74
2022/10/08 09:54:38;;;;;;;;;;;23.90;49.00;;;;;;487118;245;1082;-74
2022/10/08 09:56:39;;;;;;;;;;;23.90;49.00;;;;;;487086;244;1333;-74
2022/10/08 09:58:40;;;;;;;;;;;23.90;49.00;;;;;;487106;245;1116;-74
2022/10/08 10:00:42;;;;;;;;;;;23.90;49.00;;;;;;487115;244;1322;-74
2022/10/08 10:02:43;;;;;;;;;;;23.80;49.10;;;;;;487034;245;2142;-74
2022/10/08 10:04:45;;;;;;;;;;;23.80;49.10;;;;;;487148;244;1117;-74
2022/10/08 10:06:47;;;;;;;;;;;23.80;49.10;;;;;;487036;245;1095;-74
2022/10/08 10:08:47;;;;;;;;;;;23.70;49.10;;;;;;487042;245;1256;-74
2022/10/08 10:10:48;;;;;;;;;;;23.70;49.10;;;;;;487079;245;1174;-74
2022/10/08 10:12:50;;;;;;;;;;;23.70;49.20;;;;;;487059;245;1242;-74
2022/10/08 10:14:51;;;;;;;;;;;23.80;49.20;;;;;;487021;245;1263;-74
2022/10/08 10:16:52;;;;;;;;;;;23.70;49.20;;;;;;487154;244;1175;-74
2022/10/08 10:18:54;;;;;;;;;;;23.70;49.30;;;;;;487069;245;1137;-74
2022/10/08 10:20:57;;;;;;;;;;;23.80;49.20;;;;;;487107;244;1122;-74
2022/10/08 10:22:56;;;;;;;;;;;23.80;49.10;;;;;;487006;245;2194;-74
2022/10/08 10:24:58;;;;;;;;;;;23.80;49.20;;;;;;487066;245;1070;-74
2022/10/08 10:26:59;;;;;;;;;;;23.80;49.10;;;;;;487069;245;1116;-74
2022/10/08 10:29:01;;;;;;;;;;;23.90;49.20;;;;;;487127;245;1053;-74
2022/10/08 10:31:02;;;;;;;;;;;23.90;49.10;;;;;;487004;245;1397;-74
2022/10/08 10:33:03;;;;;;;;;;;23.90;49.10;;;;;;487102;244;1214;-74
2022/10/08 10:35:05;;;;;;;;;;;23.90;49.20;;;;;;487065;245;1129;-74
2022/10/08 10:37:06;;;;;;;;;;;23.90;49.30;;;;;;487073;244;1264;-74
2022/10/08 10:39:07;;;;;;;;;;;23.90;49.20;;;;;;487065;245;1095;-74
2022/10/08 10:41:09;;;;;;;;;;;23.90;49.30;;;;;;487096;244;1104;-74
2022/10/08 10:43:10;;;;;;;;;;;23.90;49.20;;;;;;487055;245;2190;-74
2022/10/08 10:45:11;;;;;;;;;;;23.90;49.20;;;;;;487126;245;1064;-74
2022/10/08 10:47:13;;;;;;;;;;;23.90;49.20;;;;;;487144;245;1079;-74
2022/10/08 10:49:14;;;;;;;;;;;23.90;49.20;;;;;;487072;244;1081;-74
2022/10/08 10:51:15;;;;;;;;;;;23.90;49.20;;;;;;487102;245;1183;-74
2022/10/08 10:53:17;;;;;;;;;;;23.90;49.30;;;;;;487059;244;1177;-74
2022/10/08 10:55:18;;;;;;;;;;;23.90;49.30;;;;;;487069;244;1114;-74
2022/10/08 10:57:19;;;;;;;;;;;23.90;49.30;;;;;;487095;245;1133;-74
2022/10/08 10:59:21;;;;;;;;;;;23.90;49.40;;;;;;487069;245;1105;-74
2022/10/08 11:01:22;;;;;;;;;;;23.90;49.30;;;;;;487049;245;1214;-75
2022/10/08 11:03:24;;;;;;;;;;;24.00;49.30;;;;;;487074;245;2217;-74
2022/10/08 11:05:25;;;;;;;;;;;24.00;49.40;;;;;;487024;245;1113;-74
2022/10/08 11:07:26;;;;;;;;;;;23.90;49.30;;;;;;487102;244;1158;-74
2022/10/08 11:09:28;;;;;;;;;;;24.00;49.40;;;;;;487071;245;1235;-75
2022/10/08 11:11:29;;;;;;;;;;;24.00;49.40;;;;;;487109;245;1077;-75
2022/10/08 11:13:30;;;;;;;;;;;23.90;49.40;;;;;;486983;245;1115;-74
2022/10/08 11:15:32;;;;;;;;;;;24.00;49.50;;;;;;487087;244;1294;-75
2022/10/08 11:17:33;;;;;;;;;;;23.90;49.50;;;;;;487131;245;1168;-75
2022/10/08 11:19:34;;;;;;;;;;;24.00;49.50;;;;;;487100;245;1221;-75
2022/10/08 11:21:36;;;;;;;;;;;24.00;49.40;;;;;;487070;245;1125;-75
2022/10/08 11:23:37;;;;;;;;;;;23.90;49.40;;;;;;487058;245;2160;-75
2022/10/08 11:25:38;;;;;;;;;;;23.90;49.50;;;;;;487072;245;1128;-74
2022/10/08 11:27:40;;;;;;;;;;;23.90;49.70;;;;;;487064;244;1159;-74
2022/10/08 11:29:41;;;;;;;;;;;23.90;49.60;;;;;;487030;245;1268;-74
2022/10/08 11:31:42;;;;;;;;;;;23.90;49.60;;;;;;487063;245;1100;-75
2022/10/08 11:33:44;;;;;;;;;;;23.90;49.60;;;;;;487113;245;1211;-74
2022/10/08 11:35:46;;;;;;;;;;;23.90;49.60;;;;;;487135;244;1089;-75
2022/10/08 11:37:47;;;;;;;;;;;23.90;49.60;;;;;;487040;245;1117;-75
2022/10/08 11:39:48;;;;;;;;;;;24.00;49.60;;;;;;487154;244;1105;-74
2022/10/08 11:41:52;;;;;;;;;;;24.00;49.70;;;;;;487083;245;1110;-74
2022/10/08 11:43:51;;;;;;;;;;;23.90;49.60;;;;;;486960;245;2205;-75
2022/10/08 11:45:53;;;;;;;;;;;23.90;49.60;;;;;;487059;245;1085;-75
2022/10/08 11:47:54;;;;;;;;;;;24.00;49.60;;;;;;487079;245;1116;-75
2022/10/08 11:49:55;;;;;;;;;;;24.00;49.50;;;;;;487096;245;1031;-74
2022/10/08 11:51:57;;;;;;;;;;;24.00;49.60;;;;;;487059;245;1063;-74
2022/10/08 11:53:58;;;;;;;;;;;23.90;49.60;;;;;;487098;244;1140;-74
2022/10/08 11:55:59;;;;;;;;;;;23.90;49.70;;;;;;487130;245;1198;-74
2022/10/08 11:58:01;;;;;;;;;;;23.90;49.80;;;;;;487067;244;1197;-74
2022/10/08 12:00:02;;;;;;;;;;;23.90;49.70;;;;;;487065;245;1212;-74